sensor_id;sensor_type;location;lat;lon;timestamp;P1;durP1;ratioP1;P2;durP2;ratioP2
76714;SDS011;65644;44.990;20.288;2023-03-21T00:00:32;28.88;;;22.38;;
76714;SDS011;65644;44.990;20.288;2023-03-21T00:02:58;30.20;;;22.85;;
76714;SDS011;65644;44.990;20.288;2023-03-21T00:05:24;28.50;;;23.13;;
76714;SDS011;65644;44.990;20.288;2023-03-21T00:07:50;32.35;;;22.90;;
76714;SDS011;65644;44.990;20.288;2023-03-21T00:10:16;28.15;;;23.30;;
76714;SDS011;65644;44.990;20.288;2023-03-21T00:12:42;30.05;;;22.92;;
76714;SDS011;65644;44.990;20.288;2023-03-21T00:15:10;28.67;;;23.27;;
76714;SDS011;65644;44.990;20.288;2023-03-21T00:17:37;31.67;;;24.27;;
76714;SDS011;65644;44.990;20.288;2023-03-21T00:20:04;29.02;;;22.80;;
76714;SDS011;65644;44.990;20.288;2023-03-21T00:22:30;29.40;;;23.77;;
76714;SDS011;65644;44.990;20.288;2023-03-21T00:24:58;28.77;;;22.48;;
76714;SDS011;65644;44.990;20.288;2023-03-21T00:27:24;29.17;;;21.80;;
76714;SDS011;65644;44.990;20.288;2023-03-21T00:29:51;26.27;;;21.95;;
76714;SDS011;65644;44.990;20.288;2023-03-21T00:32:18;25.05;;;21.10;;
76714;SDS011;65644;44.990;20.288;2023-03-21T00:34:45;26.67;;;21.75;;
76714;SDS011;65644;44.990;20.288;2023-03-21T00:37:11;29.33;;;21.52;;
76714;SDS011;65644;44.990;20.288;2023-03-21T00:39:40;26.52;;;21.38;;
76714;SDS011;65644;44.990;20.288;2023-03-21T00:42:08;26.98;;;21.90;;
76714;SDS011;65644;44.990;20.288;2023-03-21T00:44:34;28.83;;;22.05;;
76714;SDS011;65644;44.990;20.288;2023-03-21T00:47:04;26.20;;;20.35;;
76714;SDS011;65644;44.990;20.288;2023-03-21T00:49:30;27.25;;;20.35;;
76714;SDS011;65644;44.990;20.288;2023-03-21T00:52:00;27.05;;;20.13;;
76714;SDS011;65644;44.990;20.288;2023-03-21T00:54:26;26.55;;;20.25;;
76714;SDS011;65644;44.990;20.288;2023-03-21T00:56:53;25.55;;;20.77;;
76714;SDS011;65644;44.990;20.288;2023-03-21T00:59:19;25.60;;;20.85;;
76714;SDS011;65644;44.990;20.288;2023-03-21T01:01:45;25.63;;;19.95;;
76714;SDS011;65644;44.990;20.288;2023-03-21T01:04:11;24.42;;;19.35;;
76714;SDS011;65644;44.990;20.288;2023-03-21T01:06:39;23.75;;;19.15;;
76714;SDS011;65644;44.990;20.288;2023-03-21T01:09:06;23.05;;;19.55;;
76714;SDS011;65644;44.990;20.288;2023-03-21T01:11:32;22.67;;;19.17;;
76714;SDS011;65644;44.990;20.288;2023-03-21T01:13:58;24.83;;;19.70;;
76714;SDS011;65644;44.990;20.288;2023-03-21T01:16:24;25.40;;;19.98;;
76714;SDS011;65644;44.990;20.288;2023-03-21T01:18:51;25.63;;;20.40;;
76714;SDS011;65644;44.990;20.288;2023-03-21T01:21:17;24.35;;;19.52;;
76714;SDS011;65644;44.990;20.288;2023-03-21T01:23:43;23.38;;;19.17;;
76714;SDS011;65644;44.990;20.288;2023-03-21T01:26:11;22.38;;;18.65;;
76714;SDS011;65644;44.990;20.288;2023-03-21T01:28:38;27.35;;;19.77;;
76714;SDS011;65644;44.990;20.288;2023-03-21T01:31:04;25.25;;;19.20;;
76714;SDS011;65644;44.990;20.288;2023-03-21T01:33:31;27.63;;;20.02;;
76714;SDS011;65644;44.990;20.288;2023-03-21T01:35:57;25.92;;;19.92;;
76714;SDS011;65644;44.990;20.288;2023-03-21T01:38:24;22.40;;;19.17;;
76714;SDS011;65644;44.990;20.288;2023-03-21T01:40:50;25.90;;;19.52;;
76714;SDS011;65644;44.990;20.288;2023-03-21T01:48:32;26.65;;;19.65;;
76714;SDS011;65644;44.990;20.288;2023-03-21T01:50:58;27.50;;;20.67;;
76714;SDS011;65644;44.990;20.288;2023-03-21T01:53:26;27.88;;;20.33;;
76714;SDS011;65644;44.990;20.288;2023-03-21T01:55:57;24.25;;;20.08;;
76714;SDS011;65644;44.990;20.288;2023-03-21T01:58:26;25.55;;;19.92;;
76714;SDS011;65644;44.990;20.288;2023-03-21T02:00:52;24.63;;;19.40;;
76714;SDS011;65644;44.990;20.288;2023-03-21T02:03:21;24.77;;;20.75;;
76714;SDS011;65644;44.990;20.288;2023-03-21T02:05:51;24.15;;;20.63;;
76714;SDS011;65644;44.990;20.288;2023-03-21T02:08:19;27.30;;;21.00;;
76714;SDS011;65644;44.990;20.288;2023-03-21T02:10:46;27.60;;;19.60;;
76714;SDS011;65644;44.990;20.288;2023-03-21T02:13:12;25.75;;;20.05;;
76714;SDS011;65644;44.990;20.288;2023-03-21T02:15:40;25.13;;;21.00;;
76714;SDS011;65644;44.990;20.288;2023-03-21T02:23:24;27.42;;;21.13;;
76714;SDS011;65644;44.990;20.288;2023-03-21T02:36:29;25.48;;;20.33;;
76714;SDS011;65644;44.990;20.288;2023-03-21T02:39:00;25.05;;;20.27;;
76714;SDS011;65644;44.990;20.288;2023-03-21T02:46:56;27.92;;;22.15;;
76714;SDS011;65644;44.990;20.288;2023-03-21T02:49:28;25.90;;;21.23;;
76714;SDS011;65644;44.990;20.288;2023-03-21T02:51:56;28.50;;;21.52;;
76714;SDS011;65644;44.990;20.288;2023-03-21T02:54:22;27.00;;;21.40;;
76714;SDS011;65644;44.990;20.288;2023-03-21T02:56:49;25.50;;;19.92;;
76714;SDS011;65644;44.990;20.288;2023-03-21T02:59:16;30.40;;;21.73;;
76714;SDS011;65644;44.990;20.288;2023-03-21T03:01:43;27.08;;;22.70;;
76714;SDS011;65644;44.990;20.288;2023-03-21T03:04:42;27.65;;;21.20;;
76714;SDS011;65644;44.990;20.288;2023-03-21T03:07:08;28.13;;;22.23;;
76714;SDS011;65644;44.990;20.288;2023-03-21T03:09:46;27.40;;;21.70;;
76714;SDS011;65644;44.990;20.288;2023-03-21T03:12:26;26.58;;;21.30;;
76714;SDS011;65644;44.990;20.288;2023-03-21T03:22:17;30.00;;;23.55;;
76714;SDS011;65644;44.990;20.288;2023-03-21T03:24:47;29.40;;;23.45;;
76714;SDS011;65644;44.990;20.288;2023-03-21T03:27:20;32.10;;;24.00;;
76714;SDS011;65644;44.990;20.288;2023-03-21T03:29:48;30.65;;;24.60;;
76714;SDS011;65644;44.990;20.288;2023-03-21T03:32:16;31.05;;;24.42;;
76714;SDS011;65644;44.990;20.288;2023-03-21T03:34:43;33.60;;;25.23;;
76714;SDS011;65644;44.990;20.288;2023-03-21T03:37:15;33.17;;;25.83;;
76714;SDS011;65644;44.990;20.288;2023-03-21T03:39:46;32.13;;;24.65;;
76714;SDS011;65644;44.990;20.288;2023-03-21T03:42:16;32.08;;;25.67;;
76714;SDS011;65644;44.990;20.288;2023-03-21T03:44:43;34.22;;;25.85;;
76714;SDS011;65644;44.990;20.288;2023-03-21T03:47:10;33.38;;;25.75;;
76714;SDS011;65644;44.990;20.288;2023-03-21T03:49:38;34.03;;;26.30;;
76714;SDS011;65644;44.990;20.288;2023-03-21T03:52:11;35.20;;;27.83;;
76714;SDS011;65644;44.990;20.288;2023-03-21T03:54:39;33.78;;;27.42;;
76714;SDS011;65644;44.990;20.288;2023-03-21T03:57:07;32.85;;;25.85;;
76714;SDS011;65644;44.990;20.288;2023-03-21T03:59:36;35.40;;;27.02;;
76714;SDS011;65644;44.990;20.288;2023-03-21T04:02:02;34.33;;;26.27;;
76714;SDS011;65644;44.990;20.288;2023-03-21T04:04:28;35.38;;;27.15;;
76714;SDS011;65644;44.990;20.288;2023-03-21T04:06:55;36.15;;;26.73;;
76714;SDS011;65644;44.990;20.288;2023-03-21T04:09:22;38.38;;;27.25;;
76714;SDS011;65644;44.990;20.288;2023-03-21T04:11:48;38.03;;;28.10;;
76714;SDS011;65644;44.990;20.288;2023-03-21T04:14:14;36.83;;;28.08;;
76714;SDS011;65644;44.990;20.288;2023-03-21T04:16:40;39.50;;;29.75;;
76714;SDS011;65644;44.990;20.288;2023-03-21T04:19:06;38.05;;;28.30;;
76714;SDS011;65644;44.990;20.288;2023-03-21T04:21:32;41.58;;;31.17;;
76714;SDS011;65644;44.990;20.288;2023-03-21T04:23:58;36.60;;;29.52;;
76714;SDS011;65644;44.990;20.288;2023-03-21T04:26:25;40.15;;;30.67;;
76714;SDS011;65644;44.990;20.288;2023-03-21T04:28:57;39.00;;;29.40;;
76714;SDS011;65644;44.990;20.288;2023-03-21T04:31:25;46.83;;;31.85;;
76714;SDS011;65644;44.990;20.288;2023-03-21T04:33:52;44.05;;;32.03;;
76714;SDS011;65644;44.990;20.288;2023-03-21T04:36:19;49.72;;;35.78;;
76714;SDS011;65644;44.990;20.288;2023-03-21T04:38:51;44.28;;;32.85;;
76714;SDS011;65644;44.990;20.288;2023-03-21T04:41:17;39.83;;;32.10;;
76714;SDS011;65644;44.990;20.288;2023-03-21T04:43:43;37.60;;;28.45;;
76714;SDS011;65644;44.990;20.288;2023-03-21T04:46:11;37.97;;;29.60;;
76714;SDS011;65644;44.990;20.288;2023-03-21T04:48:37;35.17;;;27.50;;
76714;SDS011;65644;44.990;20.288;2023-03-21T04:51:03;39.13;;;29.52;;
76714;SDS011;65644;44.990;20.288;2023-03-21T04:53:29;40.58;;;29.80;;
76714;SDS011;65644;44.990;20.288;2023-03-21T04:55:56;38.78;;;29.08;;
76714;SDS011;65644;44.990;20.288;2023-03-21T04:58:22;43.58;;;30.27;;
76714;SDS011;65644;44.990;20.288;2023-03-21T05:00:48;45.15;;;31.23;;
76714;SDS011;65644;44.990;20.288;2023-03-21T05:03:17;40.45;;;31.02;;
76714;SDS011;65644;44.990;20.288;2023-03-21T05:05:45;40.83;;;30.75;;
76714;SDS011;65644;44.990;20.288;2023-03-21T05:08:12;46.53;;;32.05;;
76714;SDS011;65644;44.990;20.288;2023-03-21T05:10:38;43.75;;;31.17;;
76714;SDS011;65644;44.990;20.288;2023-03-21T05:13:05;42.70;;;31.92;;
76714;SDS011;65644;44.990;20.288;2023-03-21T05:15:31;41.97;;;30.35;;
76714;SDS011;65644;44.990;20.288;2023-03-21T05:17:57;41.78;;;30.27;;
76714;SDS011;65644;44.990;20.288;2023-03-21T05:20:23;37.13;;;28.75;;
76714;SDS011;65644;44.990;20.288;2023-03-21T05:22:50;34.30;;;27.48;;
76714;SDS011;65644;44.990;20.288;2023-03-21T05:25:16;40.33;;;28.45;;
76714;SDS011;65644;44.990;20.288;2023-03-21T05:27:45;35.55;;;26.90;;
76714;SDS011;65644;44.990;20.288;2023-03-21T05:30:18;35.72;;;26.40;;
76714;SDS011;65644;44.990;20.288;2023-03-21T05:32:44;35.38;;;26.80;;
76714;SDS011;65644;44.990;20.288;2023-03-21T05:35:11;34.28;;;26.27;;
76714;SDS011;65644;44.990;20.288;2023-03-21T05:37:37;36.72;;;26.30;;
76714;SDS011;65644;44.990;20.288;2023-03-21T05:40:04;33.42;;;25.58;;
76714;SDS011;65644;44.990;20.288;2023-03-21T05:42:31;38.05;;;26.42;;
76714;SDS011;65644;44.990;20.288;2023-03-21T05:44:57;35.10;;;27.63;;
76714;SDS011;65644;44.990;20.288;2023-03-21T05:47:23;35.10;;;25.65;;
76714;SDS011;65644;44.990;20.288;2023-03-21T05:49:49;34.00;;;25.75;;
76714;SDS011;65644;44.990;20.288;2023-03-21T05:52:16;33.47;;;25.92;;
76714;SDS011;65644;44.990;20.288;2023-03-21T05:54:42;31.83;;;26.00;;
76714;SDS011;65644;44.990;20.288;2023-03-21T05:57:08;35.60;;;26.30;;
76714;SDS011;65644;44.990;20.288;2023-03-21T05:59:34;34.17;;;27.00;;
76714;SDS011;65644;44.990;20.288;2023-03-21T06:02:00;35.10;;;27.08;;
76714;SDS011;65644;44.990;20.288;2023-03-21T06:04:26;37.90;;;27.23;;
76714;SDS011;65644;44.990;20.288;2023-03-21T06:06:52;36.17;;;27.58;;
76714;SDS011;65644;44.990;20.288;2023-03-21T06:09:21;34.80;;;26.02;;
76714;SDS011;65644;44.990;20.288;2023-03-21T06:11:49;33.70;;;26.33;;
76714;SDS011;65644;44.990;20.288;2023-03-21T06:14:15;37.58;;;26.17;;
76714;SDS011;65644;44.990;20.288;2023-03-21T06:16:42;33.75;;;25.45;;
76714;SDS011;65644;44.990;20.288;2023-03-21T06:19:08;33.03;;;26.00;;
76714;SDS011;65644;44.990;20.288;2023-03-21T06:21:34;34.25;;;24.63;;
76714;SDS011;65644;44.990;20.288;2023-03-21T06:24:00;40.17;;;26.60;;
76714;SDS011;65644;44.990;20.288;2023-03-21T06:26:26;29.58;;;24.10;;
76714;SDS011;65644;44.990;20.288;2023-03-21T06:28:52;32.97;;;25.58;;
76714;SDS011;65644;44.990;20.288;2023-03-21T06:31:18;33.58;;;24.52;;
76714;SDS011;65644;44.990;20.288;2023-03-21T06:33:46;33.30;;;25.50;;
76714;SDS011;65644;44.990;20.288;2023-03-21T06:36:12;31.17;;;24.85;;
76714;SDS011;65644;44.990;20.288;2023-03-21T06:38:38;30.60;;;24.90;;
76714;SDS011;65644;44.990;20.288;2023-03-21T06:41:05;33.83;;;24.67;;
76714;SDS011;65644;44.990;20.288;2023-03-21T06:43:31;30.77;;;24.20;;
76714;SDS011;65644;44.990;20.288;2023-03-21T06:45:58;31.83;;;24.45;;
76714;SDS011;65644;44.990;20.288;2023-03-21T06:48:24;33.42;;;24.00;;
76714;SDS011;65644;44.990;20.288;2023-03-21T06:50:51;31.15;;;23.70;;
76714;SDS011;65644;44.990;20.288;2023-03-21T06:53:18;30.70;;;22.90;;
76714;SDS011;65644;44.990;20.288;2023-03-21T06:55:54;30.40;;;22.83;;
76714;SDS011;65644;44.990;20.288;2023-03-21T06:58:20;27.55;;;22.67;;
76714;SDS011;65644;44.990;20.288;2023-03-21T07:00:46;27.65;;;22.42;;
76714;SDS011;65644;44.990;20.288;2023-03-21T07:03:13;34.25;;;22.35;;
76714;SDS011;65644;44.990;20.288;2023-03-21T07:05:40;25.13;;;21.30;;
76714;SDS011;65644;44.990;20.288;2023-03-21T07:08:06;27.25;;;20.55;;
76714;SDS011;65644;44.990;20.288;2023-03-21T07:10:43;27.63;;;20.92;;
76714;SDS011;65644;44.990;20.288;2023-03-21T07:13:10;30.40;;;21.80;;
76714;SDS011;65644;44.990;20.288;2023-03-21T07:15:37;25.02;;;20.05;;
76714;SDS011;65644;44.990;20.288;2023-03-21T07:18:03;27.92;;;21.52;;
76714;SDS011;65644;44.990;20.288;2023-03-21T07:20:30;30.83;;;21.63;;
76714;SDS011;65644;44.990;20.288;2023-03-21T07:22:56;27.90;;;22.00;;
76714;SDS011;65644;44.990;20.288;2023-03-21T07:25:22;31.85;;;23.55;;
76714;SDS011;65644;44.990;20.288;2023-03-21T07:27:49;28.15;;;22.33;;
76714;SDS011;65644;44.990;20.288;2023-03-21T07:30:15;27.58;;;21.67;;
76714;SDS011;65644;44.990;20.288;2023-03-21T07:32:41;27.73;;;22.65;;
76714;SDS011;65644;44.990;20.288;2023-03-21T07:35:10;30.17;;;22.38;;
76714;SDS011;65644;44.990;20.288;2023-03-21T07:37:36;31.85;;;22.58;;
76714;SDS011;65644;44.990;20.288;2023-03-21T07:40:03;27.42;;;22.80;;
76714;SDS011;65644;44.990;20.288;2023-03-21T07:42:38;28.35;;;20.88;;
76714;SDS011;65644;44.990;20.288;2023-03-21T07:45:04;26.13;;;20.67;;
76714;SDS011;65644;44.990;20.288;2023-03-21T07:47:32;30.60;;;19.90;;
76714;SDS011;65644;44.990;20.288;2023-03-21T07:49:58;27.27;;;21.10;;
76714;SDS011;65644;44.990;20.288;2023-03-21T07:52:24;32.15;;;22.35;;
76714;SDS011;65644;44.990;20.288;2023-03-21T07:54:50;27.15;;;21.17;;
76714;SDS011;65644;44.990;20.288;2023-03-21T07:57:16;34.88;;;21.60;;
76714;SDS011;65644;44.990;20.288;2023-03-21T07:59:42;38.13;;;22.23;;
76714;SDS011;65644;44.990;20.288;2023-03-21T08:02:11;32.13;;;22.17;;
76714;SDS011;65644;44.990;20.288;2023-03-21T08:04:38;32.95;;;22.63;;
76714;SDS011;65644;44.990;20.288;2023-03-21T08:07:04;34.80;;;22.05;;
76714;SDS011;65644;44.990;20.288;2023-03-21T08:09:30;30.67;;;21.52;;
76714;SDS011;65644;44.990;20.288;2023-03-21T08:11:56;29.92;;;21.65;;
76714;SDS011;65644;44.990;20.288;2023-03-21T08:14:23;30.15;;;20.83;;
76714;SDS011;65644;44.990;20.288;2023-03-21T08:16:49;32.83;;;21.02;;
76714;SDS011;65644;44.990;20.288;2023-03-21T08:19:15;32.92;;;22.05;;
76714;SDS011;65644;44.990;20.288;2023-03-21T08:21:42;28.50;;;20.80;;
76714;SDS011;65644;44.990;20.288;2023-03-21T08:24:08;30.05;;;20.80;;
76714;SDS011;65644;44.990;20.288;2023-03-21T08:26:36;27.40;;;21.25;;
76714;SDS011;65644;44.990;20.288;2023-03-21T08:29:02;27.38;;;20.27;;
76714;SDS011;65644;44.990;20.288;2023-03-21T08:31:28;22.73;;;18.35;;
76714;SDS011;65644;44.990;20.288;2023-03-21T08:33:54;23.38;;;19.10;;
76714;SDS011;65644;44.990;20.288;2023-03-21T08:36:21;20.33;;;17.90;;
76714;SDS011;65644;44.990;20.288;2023-03-21T08:38:47;28.85;;;18.85;;
76714;SDS011;65644;44.990;20.288;2023-03-21T08:41:17;23.30;;;17.48;;
76714;SDS011;65644;44.990;20.288;2023-03-21T08:43:46;48.97;;;20.10;;
76714;SDS011;65644;44.990;20.288;2023-03-21T08:46:12;22.67;;;17.30;;
76714;SDS011;65644;44.990;20.288;2023-03-21T08:48:38;24.35;;;17.63;;
76714;SDS011;65644;44.990;20.288;2023-03-21T08:51:04;21.63;;;17.48;;
76714;SDS011;65644;44.990;20.288;2023-03-21T08:53:31;21.52;;;16.65;;
76714;SDS011;65644;44.990;20.288;2023-03-21T08:55:57;21.60;;;16.77;;
76714;SDS011;65644;44.990;20.288;2023-03-21T08:58:23;24.10;;;17.45;;
76714;SDS011;65644;44.990;20.288;2023-03-21T09:00:49;20.48;;;16.35;;
76714;SDS011;65644;44.990;20.288;2023-03-21T09:03:16;17.35;;;15.27;;
76714;SDS011;65644;44.990;20.288;2023-03-21T09:05:44;26.00;;;16.55;;
76714;SDS011;65644;44.990;20.288;2023-03-21T09:08:11;21.35;;;17.13;;
76714;SDS011;65644;44.990;20.288;2023-03-21T09:10:37;22.27;;;17.65;;
76714;SDS011;65644;44.990;20.288;2023-03-21T09:13:03;21.52;;;16.65;;
76714;SDS011;65644;44.990;20.288;2023-03-21T09:15:30;23.98;;;17.35;;
76714;SDS011;65644;44.990;20.288;2023-03-21T09:17:56;25.27;;;17.23;;
76714;SDS011;65644;44.990;20.288;2023-03-21T09:20:36;19.67;;;16.63;;
76714;SDS011;65644;44.990;20.288;2023-03-21T09:23:04;22.20;;;15.68;;
76714;SDS011;65644;44.990;20.288;2023-03-21T09:25:30;18.80;;;16.10;;
76714;SDS011;65644;44.990;20.288;2023-03-21T09:27:58;19.50;;;15.80;;
76714;SDS011;65644;44.990;20.288;2023-03-21T09:30:24;20.23;;;16.35;;
76714;SDS011;65644;44.990;20.288;2023-03-21T09:32:51;26.75;;;15.93;;
76714;SDS011;65644;44.990;20.288;2023-03-21T09:35:18;22.27;;;16.50;;
76714;SDS011;65644;44.990;20.288;2023-03-21T09:37:44;24.55;;;16.92;;
76714;SDS011;65644;44.990;20.288;2023-03-21T09:40:16;20.45;;;15.77;;
76714;SDS011;65644;44.990;20.288;2023-03-21T09:42:53;17.15;;;15.38;;
76714;SDS011;65644;44.990;20.288;2023-03-21T09:45:31;19.88;;;15.20;;
76714;SDS011;65644;44.990;20.288;2023-03-21T09:48:00;17.70;;;15.80;;
76714;SDS011;65644;44.990;20.288;2023-03-21T09:50:29;21.40;;;16.40;;
76714;SDS011;65644;44.990;20.288;2023-03-21T09:55:23;22.90;;;16.70;;
76714;SDS011;65644;44.990;20.288;2023-03-21T09:58:05;20.83;;;16.20;;
76714;SDS011;65644;44.990;20.288;2023-03-21T10:00:37;20.73;;;15.70;;
76714;SDS011;65644;44.990;20.288;2023-03-21T10:03:18;21.98;;;14.93;;
76714;SDS011;65644;44.990;20.288;2023-03-21T10:05:47;21.23;;;15.77;;
76714;SDS011;65644;44.990;20.288;2023-03-21T10:08:18;17.00;;;14.65;;
76714;SDS011;65644;44.990;20.288;2023-03-21T10:10:47;18.13;;;14.23;;
76714;SDS011;65644;44.990;20.288;2023-03-21T10:16:11;21.73;;;14.82;;
76714;SDS011;65644;44.990;20.288;2023-03-21T10:18:38;17.77;;;13.85;;
76714;SDS011;65644;44.990;20.288;2023-03-21T10:21:06;14.40;;;12.93;;
76714;SDS011;65644;44.990;20.288;2023-03-21T10:23:32;18.85;;;14.80;;
76714;SDS011;65644;44.990;20.288;2023-03-21T10:26:03;19.30;;;13.48;;
76714;SDS011;65644;44.990;20.288;2023-03-21T10:28:32;15.20;;;12.40;;
76714;SDS011;65644;44.990;20.288;2023-03-21T10:31:01;15.73;;;13.98;;
76714;SDS011;65644;44.990;20.288;2023-03-21T10:33:38;14.50;;;11.82;;
76714;SDS011;65644;44.990;20.288;2023-03-21T10:38:32;16.08;;;11.38;;
76714;SDS011;65644;44.990;20.288;2023-03-21T10:40:59;17.60;;;11.00;;
76714;SDS011;65644;44.990;20.288;2023-03-21T10:45:54;22.70;;;12.60;;
76714;SDS011;65644;44.990;20.288;2023-03-21T10:48:21;13.98;;;11.10;;
76714;SDS011;65644;44.990;20.288;2023-03-21T10:50:48;17.00;;;11.80;;
76714;SDS011;65644;44.990;20.288;2023-03-21T10:53:17;15.85;;;11.70;;
76714;SDS011;65644;44.990;20.288;2023-03-21T10:55:46;16.92;;;12.52;;
76714;SDS011;65644;44.990;20.288;2023-03-21T10:58:17;16.20;;;12.35;;
76714;SDS011;65644;44.990;20.288;2023-03-21T11:00:49;18.75;;;12.60;;
76714;SDS011;65644;44.990;20.288;2023-03-21T11:03:20;12.13;;;9.90;;
76714;SDS011;65644;44.990;20.288;2023-03-21T11:05:47;15.48;;;10.73;;
76714;SDS011;65644;44.990;20.288;2023-03-21T11:08:14;12.60;;;10.30;;
76714;SDS011;65644;44.990;20.288;2023-03-21T11:10:59;11.63;;;9.70;;
76714;SDS011;65644;44.990;20.288;2023-03-21T11:13:37;15.65;;;11.00;;
76714;SDS011;65644;44.990;20.288;2023-03-21T11:16:07;11.35;;;9.93;;
76714;SDS011;65644;44.990;20.288;2023-03-21T11:18:38;9.57;;;8.32;;
76714;SDS011;65644;44.990;20.288;2023-03-21T11:21:05;9.55;;;6.63;;
76714;SDS011;65644;44.990;20.288;2023-03-21T11:23:33;8.27;;;5.00;;
76714;SDS011;65644;44.990;20.288;2023-03-21T11:26:00;5.15;;;4.57;;
76714;SDS011;65644;44.990;20.288;2023-03-21T11:28:36;8.15;;;6.25;;
76714;SDS011;65644;44.990;20.288;2023-03-21T11:31:03;9.25;;;7.38;;
76714;SDS011;65644;44.990;20.288;2023-03-21T11:33:36;7.82;;;6.35;;
76714;SDS011;65644;44.990;20.288;2023-03-21T11:38:39;8.77;;;6.53;;
76714;SDS011;65644;44.990;20.288;2023-03-21T11:41:05;12.15;;;6.55;;
76714;SDS011;65644;44.990;20.288;2023-03-21T11:43:34;6.40;;;5.53;;
76714;SDS011;65644;44.990;20.288;2023-03-21T11:48:37;9.65;;;7.05;;
76714;SDS011;65644;44.990;20.288;2023-03-21T11:51:09;11.57;;;7.27;;
76714;SDS011;65644;44.990;20.288;2023-03-21T11:53:38;8.25;;;6.43;;
76714;SDS011;65644;44.990;20.288;2023-03-21T11:58:35;9.55;;;6.32;;
76714;SDS011;65644;44.990;20.288;2023-03-21T12:01:04;8.25;;;6.45;;
76714;SDS011;65644;44.990;20.288;2023-03-21T12:06:04;11.07;;;6.63;;
76714;SDS011;65644;44.990;20.288;2023-03-21T12:08:59;16.87;;;7.77;;
76714;SDS011;65644;44.990;20.288;2023-03-21T12:19:34;13.95;;;9.65;;
76714;SDS011;65644;44.990;20.288;2023-03-21T12:24:12;10.00;;;6.75;;
76714;SDS011;65644;44.990;20.288;2023-03-21T12:29:45;9.63;;;6.03;;
76714;SDS011;65644;44.990;20.288;2023-03-21T12:32:34;5.28;;;4.78;;
76714;SDS011;65644;44.990;20.288;2023-03-21T12:37:40;7.85;;;4.85;;
76714;SDS011;65644;44.990;20.288;2023-03-21T12:43:19;11.10;;;6.05;;
76714;SDS011;65644;44.990;20.288;2023-03-21T12:45:48;7.10;;;5.22;;
76714;SDS011;65644;44.990;20.288;2023-03-21T12:51:01;6.60;;;2.80;;
76714;SDS011;65644;44.990;20.288;2023-03-21T12:53:38;5.35;;;2.75;;
76714;SDS011;65644;44.990;20.288;2023-03-21T12:56:09;4.60;;;3.20;;
76714;SDS011;65644;44.990;20.288;2023-03-21T13:01:32;7.50;;;3.97;;
76714;SDS011;65644;44.990;20.288;2023-03-21T13:06:44;3.70;;;2.88;;
76714;SDS011;65644;44.990;20.288;2023-03-21T13:09:15;4.15;;;2.65;;
76714;SDS011;65644;44.990;20.288;2023-03-21T13:11:43;2.85;;;2.65;;
76714;SDS011;65644;44.990;20.288;2023-03-21T13:14:26;3.85;;;2.55;;
76714;SDS011;65644;44.990;20.288;2023-03-21T13:19:45;6.13;;;3.33;;
76714;SDS011;65644;44.990;20.288;2023-03-21T13:22:27;7.45;;;3.10;;
76714;SDS011;65644;44.990;20.288;2023-03-21T13:24:56;4.15;;;1.80;;
76714;SDS011;65644;44.990;20.288;2023-03-21T13:29:50;2.90;;;2.50;;
76714;SDS011;65644;44.990;20.288;2023-03-21T13:34:57;10.35;;;3.08;;
76714;SDS011;65644;44.990;20.288;2023-03-21T13:37:24;6.57;;;3.33;;
76714;SDS011;65644;44.990;20.288;2023-03-21T13:39:51;4.40;;;3.10;;
76714;SDS011;65644;44.990;20.288;2023-03-21T13:42:24;4.50;;;3.08;;
76714;SDS011;65644;44.990;20.288;2023-03-21T13:44:56;8.35;;;3.15;;
76714;SDS011;65644;44.990;20.288;2023-03-21T13:50:20;3.95;;;2.95;;
76714;SDS011;65644;44.990;20.288;2023-03-21T13:55:27;3.78;;;2.53;;
76714;SDS011;65644;44.990;20.288;2023-03-21T13:57:53;3.10;;;2.60;;
76714;SDS011;65644;44.990;20.288;2023-03-21T14:00:30;4.65;;;2.30;;
76714;SDS011;65644;44.990;20.288;2023-03-21T14:05:23;6.28;;;2.33;;
76714;SDS011;65644;44.990;20.288;2023-03-21T14:07:52;3.40;;;2.85;;
76714;SDS011;65644;44.990;20.288;2023-03-21T14:10:21;5.78;;;3.03;;
76714;SDS011;65644;44.990;20.288;2023-03-21T14:12:48;3.50;;;2.88;;
76714;SDS011;65644;44.990;20.288;2023-03-21T14:15:22;8.18;;;3.47;;
76714;SDS011;65644;44.990;20.288;2023-03-21T14:17:55;5.82;;;2.83;;
76714;SDS011;65644;44.990;20.288;2023-03-21T14:20:23;5.47;;;3.35;;
76714;SDS011;65644;44.990;20.288;2023-03-21T14:22:50;3.55;;;2.80;;
76714;SDS011;65644;44.990;20.288;2023-03-21T14:25:18;5.50;;;2.70;;
76714;SDS011;65644;44.990;20.288;2023-03-21T14:27:45;2.90;;;2.70;;
76714;SDS011;65644;44.990;20.288;2023-03-21T14:30:25;3.72;;;2.80;;
76714;SDS011;65644;44.990;20.288;2023-03-21T14:32:55;5.93;;;3.15;;
76714;SDS011;65644;44.990;20.288;2023-03-21T14:35:23;7.20;;;3.10;;
76714;SDS011;65644;44.990;20.288;2023-03-21T14:37:50;2.85;;;2.20;;
76714;SDS011;65644;44.990;20.288;2023-03-21T14:40:24;8.95;;;2.90;;
76714;SDS011;65644;44.990;20.288;2023-03-21T14:42:50;7.60;;;3.17;;
76714;SDS011;65644;44.990;20.288;2023-03-21T14:45:18;2.92;;;2.60;;
76714;SDS011;65644;44.990;20.288;2023-03-21T14:47:54;7.30;;;2.55;;
76714;SDS011;65644;44.990;20.288;2023-03-21T14:50:27;6.45;;;3.15;;
76714;SDS011;65644;44.990;20.288;2023-03-21T14:52:56;6.07;;;3.03;;
76714;SDS011;65644;44.990;20.288;2023-03-21T14:55:22;9.82;;;3.60;;
76714;SDS011;65644;44.990;20.288;2023-03-21T14:57:48;3.97;;;2.30;;
76714;SDS011;65644;44.990;20.288;2023-03-21T15:00:25;4.68;;;2.50;;
76714;SDS011;65644;44.990;20.288;2023-03-21T15:02:52;6.78;;;2.65;;
76714;SDS011;65644;44.990;20.288;2023-03-21T15:07:52;3.40;;;2.35;;
76714;SDS011;65644;44.990;20.288;2023-03-21T15:10:18;9.60;;;2.60;;
76714;SDS011;65644;44.990;20.288;2023-03-21T15:13:28;5.60;;;2.60;;
76714;SDS011;65644;44.990;20.288;2023-03-21T15:15:34;3.78;;;2.05;;
76714;SDS011;65644;44.990;20.288;2023-03-21T15:18:03;2.50;;;1.90;;
76714;SDS011;65644;44.990;20.288;2023-03-21T15:20:31;6.18;;;2.55;;
76714;SDS011;65644;44.990;20.288;2023-03-21T15:22:59;3.60;;;2.30;;
76714;SDS011;65644;44.990;20.288;2023-03-21T15:25:28;3.88;;;2.30;;
76714;SDS011;65644;44.990;20.288;2023-03-21T15:27:55;4.22;;;3.10;;
76714;SDS011;65644;44.990;20.288;2023-03-21T15:30:25;8.15;;;4.72;;
76714;SDS011;65644;44.990;20.288;2023-03-21T15:32:55;9.00;;;4.88;;
76714;SDS011;65644;44.990;20.288;2023-03-21T15:35:26;10.98;;;3.95;;
76714;SDS011;65644;44.990;20.288;2023-03-21T15:37:53;7.30;;;2.97;;
76714;SDS011;65644;44.990;20.288;2023-03-21T15:40:22;10.43;;;3.67;;
76714;SDS011;65644;44.990;20.288;2023-03-21T15:42:48;12.57;;;4.13;;
76714;SDS011;65644;44.990;20.288;2023-03-21T15:45:22;11.60;;;4.30;;
76714;SDS011;65644;44.990;20.288;2023-03-21T15:52:47;6.88;;;3.65;;
76714;SDS011;65644;44.990;20.288;2023-03-21T15:55:19;6.68;;;3.67;;
76714;SDS011;65644;44.990;20.288;2023-03-21T15:57:50;8.15;;;4.10;;
76714;SDS011;65644;44.990;20.288;2023-03-21T16:00:26;5.03;;;3.92;;
76714;SDS011;65644;44.990;20.288;2023-03-21T16:02:57;4.60;;;3.53;;
76714;SDS011;65644;44.990;20.288;2023-03-21T16:05:25;12.85;;;4.78;;
76714;SDS011;65644;44.990;20.288;2023-03-21T16:07:52;20.90;;;5.25;;